Pingree Grove, Illinois
Current Conditions -  °F | °C
As of 8:35 PM on Friday 24 Oct 2014 (Local Time) from KDKB Reporting Station
Overcast Overcast  
Wind Chill: 56°   Ceiling: 3700
Heat Index: 56°   Visibility: 10mi
Dew Point: 45°   Wind: 8mph
Humidity: 66%   Direction: 210°SSW
Pressure: 29.95"   Gusts: NA
Location:  42.0764°N, 88.5255°W
Report Text: KDKB 250135Z AUTO 21007KT 10SM OVC037 14/07 A2995 RMK AO2 T01350072
Loading
Personal Weather Stations






























Interactive Weather Map
Tropical Storm Tracking
New forecast layout! Learn more

10-Day Weather Forecast

Advertisements
Track Severe Weather on mobile